Time;durP1;ratioP1;P1;durP2;ratioP2;P2;SDS_P1;SDS_P2;PMS_P1;PMS_P2;Temp;Humidity;BMP_temperature;BMP_pressure;BME280_temperature;BME280_humidity;BME280_pressure;Samples;Min_cycle;Max_cycle;Signal;HPM_P1;HPM_P2
2021/08/15 00:00:17;;;;;;;;;;;15.70;86.80;;;;;;5012146;28;20004;-60
2021/08/15 00:02:43;;;;;;;;;;;15.70;86.90;;;;;;5011336;28;20344;-60
2021/08/15 00:05:09;;;;;;;;;;;15.70;87.00;;;;;;5012052;28;20293;-63
2021/08/15 00:07:35;;;;;;;;;;;15.70;87.10;;;;;;5009912;28;19917;-60
2021/08/15 00:10:01;;;;;;;;;;;15.70;87.30;;;;;;5011786;28;19917;-63
2021/08/15 00:12:26;;;;;;;;;;;15.70;87.40;;;;;;5011382;28;20013;-63
2021/08/15 00:14:52;;;;;;;;;;;15.70;87.50;;;;;;4977602;28;20008;-60
2021/08/15 00:17:19;;;;;;;;;;;15.70;87.60;;;;;;5010348;28;21239;-60
2021/08/15 00:19:45;;;;;;;;;;;15.70;87.70;;;;;;5011766;28;19918;-60
2021/08/15 00:22:11;;;;;;;;;;;15.70;87.80;;;;;;5011410;28;20385;-60
2021/08/15 00:24:38;;;;;;;;;;;15.60;87.90;;;;;;5011546;28;20271;-62
2021/08/15 00:27:03;;;;;;;;;;;15.60;88.00;;;;;;5010641;28;19996;-63
2021/08/15 00:29:29;;;;;;;;;;;15.60;88.00;;;;;;5011196;28;19968;-63
2021/08/15 00:31:55;;;;;;;;;;;15.60;88.20;;;;;;5011701;28;19918;-63
2021/08/15 00:34:20;;;;;;;;;;;15.60;88.30;;;;;;5011202;28;20348;-63
2021/08/15 00:36:46;;;;;;;;;;;15.60;88.40;;;;;;5010965;28;19929;-63
2021/08/15 00:39:11;;;;;;;;;;;15.60;88.60;;;;;;5009986;28;19918;-61
2021/08/15 00:41:37;;;;;;;;;;;15.60;88.80;;;;;;5009944;28;20274;-60
2021/08/15 00:44:03;;;;;;;;;;;15.60;88.90;;;;;;5010097;28;20266;-60
2021/08/15 00:46:29;;;;;;;;;;;15.60;89.10;;;;;;5010800;28;20027;-60
2021/08/15 00:48:54;;;;;;;;;;;15.60;89.30;;;;;;5010698;28;20437;-62
2021/08/15 00:51:20;;;;;;;;;;;15.60;89.60;;;;;;4994091;28;20005;-63
2021/08/15 00:53:46;;;;;;;;;;;15.70;89.70;;;;;;5010970;28;19918;-63
2021/08/15 00:56:12;;;;;;;;;;;15.70;89.70;;;;;;5011342;28;19922;-59
2021/08/15 00:58:39;;;;;;;;;;;15.70;89.90;;;;;;5010622;28;19925;-59
2021/08/15 01:01:05;;;;;;;;;;;15.80;90.00;;;;;;5010769;28;20017;-61
2021/08/15 01:03:31;;;;;;;;;;;15.80;90.10;;;;;;5042117;22;20067;-63
2021/08/15 01:06:00;;;;;;;;;;;15.90;90.10;;;;;;5033502;28;19975;-63
2021/08/15 01:08:35;;;;;;;;;;;15.90;90.10;;;;;;5030520;28;19917;-66
2021/08/15 01:11:01;;;;;;;;;;;15.90;90.10;;;;;;5031261;28;19975;-64
2021/08/15 01:13:27;;;;;;;;;;;16.00;90.10;;;;;;5032720;28;19914;-64
2021/08/15 01:15:53;;;;;;;;;;;16.00;90.10;;;;;;5051270;28;19943;-64
2021/08/15 01:18:25;;;;;;;;;;;16.00;90.10;;;;;;5050208;28;19917;-64
2021/08/15 01:21:01;;;;;;;;;;;16.00;90.10;;;;;;5054674;28;19944;-64
2021/08/15 01:23:27;;;;;;;;;;;16.10;90.20;;;;;;5054613;28;19948;-64
2021/08/15 01:25:52;;;;;;;;;;;16.10;90.30;;;;;;5054006;28;19916;-64
2021/08/15 01:28:19;;;;;;;;;;;16.20;90.30;;;;;;5036404;28;19939;-65
2021/08/15 01:30:45;;;;;;;;;;;16.20;90.30;;;;;;5053889;28;19923;-65
2021/08/15 01:33:11;;;;;;;;;;;16.30;90.30;;;;;;5054270;28;19921;-62
2021/08/15 01:35:36;;;;;;;;;;;16.30;90.30;;;;;;5036224;28;19972;-63
2021/08/15 01:38:02;;;;;;;;;;;16.40;90.30;;;;;;5053251;28;20369;-64
2021/08/15 01:40:28;;;;;;;;;;;16.40;90.20;;;;;;5036415;28;20434;-63
2021/08/15 01:42:53;;;;;;;;;;;16.40;90.20;;;;;;5054105;28;20008;-63
2021/08/15 01:45:19;;;;;;;;;;;16.50;90.20;;;;;;5053630;28;19917;-63
2021/08/15 01:47:44;;;;;;;;;;;16.50;90.10;;;;;;5053834;28;19962;-65
2021/08/15 01:50:10;;;;;;;;;;;16.60;90.20;;;;;;5053511;28;19923;-64
2021/08/15 01:52:35;;;;;;;;;;;16.60;90.10;;;;;;5053687;28;20008;-65
2021/08/15 01:55:02;;;;;;;;;;;16.60;90.00;;;;;;5053656;28;19920;-65
2021/08/15 01:57:28;;;;;;;;;;;16.60;90.00;;;;;;5035307;28;19921;-64
2021/08/15 01:59:53;;;;;;;;;;;16.60;90.00;;;;;;5053907;28;20296;-64
2021/08/15 02:02:19;;;;;;;;;;;16.70;89.90;;;;;;5053883;28;20293;-64
2021/08/15 02:04:44;;;;;;;;;;;16.70;89.70;;;;;;5053029;28;19925;-63
2021/08/15 02:07:10;;;;;;;;;;;16.70;89.60;;;;;;5053395;28;19924;-63
2021/08/15 02:09:35;;;;;;;;;;;16.80;89.50;;;;;;5035242;28;19924;-62
2021/08/15 02:12:02;;;;;;;;;;;16.70;89.80;;;;;;5053562;28;19924;-63
2021/08/15 02:14:27;;;;;;;;;;;16.70;89.30;;;;;;5053420;28;19917;-63
2021/08/15 02:16:53;;;;;;;;;;;16.70;89.20;;;;;;5052695;28;19920;-63
2021/08/15 02:19:19;;;;;;;;;;;16.80;89.20;;;;;;5053383;28;20339;-63
2021/08/15 02:21:44;;;;;;;;;;;16.80;88.90;;;;;;5053550;28;19923;-63
2021/08/15 02:24:10;;;;;;;;;;;16.80;88.80;;;;;;5052728;28;19917;-63
2021/08/15 02:26:35;;;;;;;;;;;16.80;88.80;;;;;;5053052;28;20008;-63
2021/08/15 02:29:01;;;;;;;;;;;16.80;88.70;;;;;;5035463;28;19955;-63
2021/08/15 02:31:26;;;;;;;;;;;16.80;88.50;;;;;;5018536;28;20312;-63
2021/08/15 02:33:52;;;;;;;;;;;16.80;88.40;;;;;;5053091;28;19917;-63
2021/08/15 02:36:17;;;;;;;;;;;16.80;88.40;;;;;;5034973;28;19921;-62
2021/08/15 02:38:43;;;;;;;;;;;16.80;88.30;;;;;;5052754;28;19917;-63
2021/08/15 02:41:08;;;;;;;;;;;16.80;88.20;;;;;;5053002;28;19917;-63
2021/08/15 02:43:34;;;;;;;;;;;16.80;88.10;;;;;;5052466;28;19917;-63
2021/08/15 02:45:59;;;;;;;;;;;16.80;88.20;;;;;;5052761;28;20018;-63
2021/08/15 02:48:25;;;;;;;;;;;16.80;88.10;;;;;;5034805;28;20389;-63
2021/08/15 02:50:50;;;;;;;;;;;16.80;88.00;;;;;;5052468;28;19955;-63
2021/08/15 02:53:16;;;;;;;;;;;16.80;88.00;;;;;;5034958;28;20297;-63
2021/08/15 02:55:41;;;;;;;;;;;16.80;88.10;;;;;;5052678;28;20307;-63
2021/08/15 02:58:07;;;;;;;;;;;16.80;88.20;;;;;;5051851;28;20372;-63
2021/08/15 03:00:32;;;;;;;;;;;16.70;88.10;;;;;;5052745;28;19924;-63
2021/08/15 03:02:58;;;;;;;;;;;16.70;88.30;;;;;;5051868;28;19991;-62
2021/08/15 03:05:23;;;;;;;;;;;16.70;88.00;;;;;;5052738;28;20399;-64
2021/08/15 03:07:49;;;;;;;;;;;16.20;87.90;;;;;;5052252;28;19924;-65
2021/08/15 03:10:15;;;;;;;;;;;16.60;88.30;;;;;;5051910;28;19917;-64
2021/08/15 03:12:40;;;;;;;;;;;16.60;88.40;;;;;;5052402;28;20011;-64
2021/08/15 03:15:06;;;;;;;;;;;16.60;88.60;;;;;;5052334;28;19917;-64
2021/08/15 03:17:32;;;;;;;;;;;16.60;88.80;;;;;;5051406;28;19931;-63
2021/08/15 03:19:57;;;;;;;;;;;16.60;88.90;;;;;;5052369;28;19917;-63
2021/08/15 03:22:23;;;;;;;;;;;16.60;89.00;;;;;;5051836;28;19923;-63
2021/08/15 03:24:48;;;;;;;;;;;16.60;89.10;;;;;;5052059;28;20380;-63
2021/08/15 03:27:14;;;;;;;;;;;16.60;88.90;;;;;;5051909;28;19917;-63
2021/08/15 03:29:40;;;;;;;;;;;16.50;89.00;;;;;;5051716;28;20000;-62
2021/08/15 03:32:05;;;;;;;;;;;16.50;89.30;;;;;;5051877;28;19970;-63
2021/08/15 03:34:31;;;;;;;;;;;16.40;89.40;;;;;;5052030;28;19956;-63
2021/08/15 03:36:58;;;;;;;;;;;16.40;89.60;;;;;;5051444;28;19966;-63
2021/08/15 03:39:25;;;;;;;;;;;16.40;89.80;;;;;;5051900;28;20418;-63
2021/08/15 03:41:56;;;;;;;;;;;16.30;89.80;;;;;;5051192;28;20052;-63
2021/08/15 03:44:21;;;;;;;;;;;16.30;90.00;;;;;;5051872;28;19931;-65
2021/08/15 03:46:47;;;;;;;;;;;16.20;90.10;;;;;;5051581;28;19913;-63
2021/08/15 03:49:12;;;;;;;;;;;16.20;90.20;;;;;;5051170;28;19924;-61
2021/08/15 03:51:38;;;;;;;;;;;16.10;90.30;;;;;;5051866;28;19921;-63
2021/08/15 03:54:03;;;;;;;;;;;16.10;90.40;;;;;;5051303;28;20377;-61
2021/08/15 03:56:29;;;;;;;;;;;16.10;90.40;;;;;;5051548;28;19921;-63
2021/08/15 03:58:54;;;;;;;;;;;16.10;90.50;;;;;;5051376;28;19916;-63
2021/08/15 04:01:20;;;;;;;;;;;16.10;90.70;;;;;;5051139;28;19920;-63
2021/08/15 04:03:46;;;;;;;;;;;16.10;90.80;;;;;;5051300;28;19947;-63
2021/08/15 04:06:20;;;;;;;;;;;16.10;90.90;;;;;;5051420;28;20434;-62
2021/08/15 04:08:45;;;;;;;;;;;16.20;90.90;;;;;;5050709;28;19967;-63
2021/08/15 04:11:11;;;;;;;;;;;16.20;90.90;;;;;;5051571;28;19921;-62
2021/08/15 04:13:36;;;;;;;;;;;16.20;90.90;;;;;;5050911;28;19999;-63
2021/08/15 04:16:02;;;;;;;;;;;16.20;90.90;;;;;;5051299;28;19974;-62
2021/08/15 04:18:28;;;;;;;;;;;16.20;91.20;;;;;;5051088;28;19917;-63
2021/08/15 04:20:53;;;;;;;;;;;16.20;91.10;;;;;;5050964;28;19924;-61
2021/08/15 04:23:19;;;;;;;;;;;16.20;91.10;;;;;;5050903;28;19986;-62
2021/08/15 04:25:45;;;;;;;;;;;16.20;91.20;;;;;;5033676;28;20327;-63
2021/08/15 04:28:11;;;;;;;;;;;16.20;91.30;;;;;;5050509;28;19948;-63
2021/08/15 04:30:36;;;;;;;;;;;16.20;91.30;;;;;;5051336;28;19940;-62
2021/08/15 04:33:02;;;;;;;;;;;16.30;91.30;;;;;;5033086;28;19917;-61
2021/08/15 04:35:28;;;;;;;;;;;16.30;91.40;;;;;;5051220;28;19924;-62
2021/08/15 04:37:54;;;;;;;;;;;16.30;91.40;;;;;;5050745;28;19996;-62
2021/08/15 04:40:20;;;;;;;;;;;16.30;91.50;;;;;;5050677;28;19949;-62
2021/08/15 04:42:46;;;;;;;;;;;16.30;91.50;;;;;;5051014;28;19971;-62
2021/08/15 04:45:11;;;;;;;;;;;16.30;91.50;;;;;;5051075;28;19996;-64
2021/08/15 04:47:37;;;;;;;;;;;16.40;91.40;;;;;;5050268;28;19996;-63
2021/08/15 04:50:02;;;;;;;;;;;16.30;91.50;;;;;;5051142;28;19931;-63
2021/08/15 04:52:28;;;;;;;;;;;16.30;91.60;;;;;;5051166;28;20003;-63
2021/08/15 04:54:53;;;;;;;;;;;16.30;91.60;;;;;;5054315;28;20375;-63
2021/08/15 04:57:19;;;;;;;;;;;16.30;91.60;;;;;;5054423;28;19921;-63
2021/08/15 04:59:44;;;;;;;;;;;16.30;91.70;;;;;;5037256;28;19921;-63
2021/08/15 05:02:10;;;;;;;;;;;16.30;91.60;;;;;;5054699;28;20392;-63
2021/08/15 05:04:35;;;;;;;;;;;16.30;91.50;;;;;;5054611;28;20292;-63
2021/08/15 05:07:04;;;;;;;;;;;16.20;91.60;;;;;;5054130;28;19955;-63
2021/08/15 05:09:30;;;;;;;;;;;16.20;91.80;;;;;;5036740;28;19916;-63
2021/08/15 05:11:56;;;;;;;;;;;16.30;91.90;;;;;;5054655;28;19917;-63
2021/08/15 05:20:55;;;;;;;;;;;16.40;92.00;;;;;;5054081;28;19952;-63
2021/08/15 05:23:20;;;;;;;;;;;16.30;91.80;;;;;;5054510;28;19951;-62
2021/08/15 05:25:46;;;;;;;;;;;16.30;91.90;;;;;;5053911;28;20291;-61
2021/08/15 05:28:13;;;;;;;;;;;16.30;92.00;;;;;;5053895;28;19998;-63
2021/08/15 05:30:38;;;;;;;;;;;16.40;92.10;;;;;;5054283;28;20300;-61
2021/08/15 05:33:04;;;;;;;;;;;16.30;92.00;;;;;;5053906;28;19962;-63
2021/08/15 05:35:29;;;;;;;;;;;16.40;92.00;;;;;;5054262;28;20234;-63
2021/08/15 05:37:55;;;;;;;;;;;16.40;92.00;;;;;;5053943;28;19928;-63
2021/08/15 05:40:20;;;;;;;;;;;16.40;92.00;;;;;;5053720;28;19962;-63
2021/08/15 05:42:46;;;;;;;;;;;16.40;92.00;;;;;;5053872;28;19917;-63
2021/08/15 05:45:12;;;;;;;;;;;16.40;92.10;;;;;;5053928;28;20285;-63
2021/08/15 05:47:37;;;;;;;;;;;16.40;92.10;;;;;;5053184;28;19917;-63
2021/08/15 05:50:04;;;;;;;;;;;16.40;92.20;;;;;;5036235;28;20372;-63
2021/08/15 05:52:30;;;;;;;;;;;16.40;92.20;;;;;;5053887;28;20289;-63
2021/08/15 05:54:55;;;;;;;;;;;16.50;92.20;;;;;;5053639;28;19924;-63
2021/08/15 05:57:21;;;;;;;;;;;16.50;92.30;;;;;;5053483;28;20010;-63
2021/08/15 05:59:46;;;;;;;;;;;16.60;92.20;;;;;;5053396;28;19924;-62
2021/08/15 06:02:12;;;;;;;;;;;16.50;92.10;;;;;;5053459;28;19932;-63
2021/08/15 06:04:37;;;;;;;;;;;16.60;92.20;;;;;;5052874;28;19920;-63
2021/08/15 06:07:03;;;;;;;;;;;16.60;92.20;;;;;;5052730;28;20004;-63
2021/08/15 06:09:28;;;;;;;;;;;16.60;92.30;;;;;;5053637;28;19917;-63
2021/08/15 06:11:54;;;;;;;;;;;16.60;92.30;;;;;;5035754;28;19952;-63
2021/08/15 06:14:20;;;;;;;;;;;16.60;92.30;;;;;;5052871;28;20007;-63
2021/08/15 06:16:45;;;;;;;;;;;16.70;92.30;;;;;;5053218;28;20381;-63
2021/08/15 06:19:11;;;;;;;;;;;16.70;92.20;;;;;;5053298;28;19921;-63
2021/08/15 06:21:37;;;;;;;;;;;16.70;92.20;;;;;;5052930;28;20357;-62
2021/08/15 06:24:03;;;;;;;;;;;16.70;92.20;;;;;;5053319;28;20296;-63
2021/08/15 06:26:29;;;;;;;;;;;16.70;92.10;;;;;;5034999;28;19924;-63
2021/08/15 06:28:54;;;;;;;;;;;16.70;92.10;;;;;;5052981;28;19917;-63
2021/08/15 06:31:21;;;;;;;;;;;16.60;92.10;;;;;;5053059;28;19963;-63
2021/08/15 06:33:46;;;;;;;;;;;16.60;92.00;;;;;;5052587;28;19978;-63
2021/08/15 06:36:12;;;;;;;;;;;16.60;92.20;;;;;;5052811;28;20389;-63
2021/08/15 06:38:37;;;;;;;;;;;16.60;92.20;;;;;;5052419;28;19946;-62
2021/08/15 06:41:03;;;;;;;;;;;16.60;92.30;;;;;;5053181;28;20399;-63
2021/08/15 06:43:28;;;;;;;;;;;16.60;92.40;;;;;;5035179;28;19947;-63
2021/08/15 06:45:54;;;;;;;;;;;16.60;92.30;;;;;;5052422;28;19925;-63
2021/08/15 06:48:22;;;;;;;;;;;16.60;92.30;;;;;;5052728;28;19924;-62
2021/08/15 06:50:47;;;;;;;;;;;16.70;92.40;;;;;;5052852;28;20436;-61
2021/08/15 06:53:13;;;;;;;;;;;16.70;92.60;;;;;;5052192;28;19917;-63
2021/08/15 06:55:39;;;;;;;;;;;16.80;92.60;;;;;;5052731;28;19916;-63
2021/08/15 06:58:04;;;;;;;;;;;16.90;92.40;;;;;;5052088;28;19921;-63
2021/08/15 07:00:30;;;;;;;;;;;17.00;92.40;;;;;;5052692;28;19924;-63
2021/08/15 07:02:55;;;;;;;;;;;17.00;92.30;;;;;;5052428;28;19956;-63
2021/08/15 07:05:21;;;;;;;;;;;17.00;92.30;;;;;;5052628;28;20118;-61
2021/08/15 07:07:46;;;;;;;;;;;17.10;92.20;;;;;;5052009;28;19968;-60
2021/08/15 07:10:12;;;;;;;;;;;17.10;92.10;;;;;;5051919;28;19951;-61
2021/08/15 07:12:37;;;;;;;;;;;17.00;92.10;;;;;;5051755;28;19948;-61
2021/08/15 07:15:03;;;;;;;;;;;17.00;92.10;;;;;;5052077;28;19924;-60
2021/08/15 07:17:29;;;;;;;;;;;17.00;91.90;;;;;;5051018;28;19948;-60
2021/08/15 07:19:55;;;;;;;;;;;16.90;91.80;;;;;;5051692;28;19925;-60
2021/08/15 07:22:20;;;;;;;;;;;16.90;91.90;;;;;;5052088;28;19916;-60
2021/08/15 07:24:46;;;;;;;;;;;16.90;92.00;;;;;;5051591;28;19944;-62
2021/08/15 07:27:11;;;;;;;;;;;16.80;91.90;;;;;;5051699;28;20011;-60
2021/08/15 07:29:37;;;;;;;;;;;16.80;92.00;;;;;;5051852;28;19917;-61
2021/08/15 07:32:03;;;;;;;;;;;16.80;92.00;;;;;;5033722;28;20003;-60
2021/08/15 07:34:28;;;;;;;;;;;16.80;92.00;;;;;;5033667;28;20359;-60
2021/08/15 07:36:54;;;;;;;;;;;16.90;92.00;;;;;;5048192;28;20499;-60
2021/08/15 07:39:19;;;;;;;;;;;16.90;92.10;;;;;;5053307;28;19925;-59
2021/08/15 07:41:45;;;;;;;;;;;16.90;92.10;;;;;;5051437;28;20404;-60
2021/08/15 07:44:10;;;;;;;;;;;17.00;92.20;;;;;;5051355;28;19967;-60
2021/08/15 07:46:36;;;;;;;;;;;17.10;92.20;;;;;;5050675;28;20384;-60
2021/08/15 07:49:01;;;;;;;;;;;17.10;92.10;;;;;;5049598;28;20418;-60
2021/08/15 07:51:30;;;;;;;;;;;17.10;91.90;;;;;;5050911;28;19923;-60
2021/08/15 07:53:56;;;;;;;;;;;17.20;91.90;;;;;;5051362;28;19923;-60
2021/08/15 07:56:21;;;;;;;;;;;17.30;92.20;;;;;;5033713;28;19931;-60
2021/08/15 07:58:47;;;;;;;;;;;17.50;92.50;;;;;;5032522;28;19917;-60
2021/08/15 08:01:13;;;;;;;;;;;17.70;92.40;;;;;;5051498;28;20000;-60
2021/08/15 08:03:38;;;;;;;;;;;17.80;91.90;;;;;;5050999;28;19924;-60
2021/08/15 08:06:04;;;;;;;;;;;17.80;91.70;;;;;;5043553;28;19921;-60
2021/08/15 08:08:30;;;;;;;;;;;17.80;91.60;;;;;;5041639;28;19920;-60
2021/08/15 08:10:55;;;;;;;;;;;17.80;91.60;;;;;;5064239;28;19955;-61
2021/08/15 08:13:22;;;;;;;;;;;17.80;91.50;;;;;;5053151;28;19920;-61
2021/08/15 08:15:48;;;;;;;;;;;17.80;91.40;;;;;;5058703;28;19936;-60
2021/08/15 08:18:13;;;;;;;;;;;17.80;91.30;;;;;;5048258;28;19924;-61
2021/08/15 08:20:39;;;;;;;;;;;17.80;91.20;;;;;;5050435;28;19925;-61
2021/08/15 08:23:06;;;;;;;;;;;17.70;91.20;;;;;;5064304;28;19920;-60
2021/08/15 08:25:32;;;;;;;;;;;17.70;91.40;;;;;;5054213;28;20436;-61
2021/08/15 08:27:58;;;;;;;;;;;17.70;91.40;;;;;;5056728;28;19921;-61
2021/08/15 08:30:24;;;;;;;;;;;17.80;91.50;;;;;;5043123;28;19920;-61
2021/08/15 08:32:50;;;;;;;;;;;18.00;91.60;;;;;;5050655;28;20034;-61
2021/08/15 08:35:15;;;;;;;;;;;18.10;91.50;;;;;;5063101;28;19927;-61
2021/08/15 08:37:42;;;;;;;;;;;18.20;91.50;;;;;;5054908;28;19943;-61
2021/08/15 08:40:07;;;;;;;;;;;18.30;91.40;;;;;;5055818;28;19921;-61
2021/08/15 08:42:33;;;;;;;;;;;18.40;91.10;;;;;;5062300;28;20297;-61
2021/08/15 08:45:02;;;;;;;;;;;18.40;90.90;;;;;;5032576;28;20278;-61
2021/08/15 08:47:32;;;;;;;;;;;18.40;90.70;;;;;;5061129;28;19972;-61
2021/08/15 08:49:58;;;;;;;;;;;18.30;90.70;;;;;;5056879;28;19920;-61
2021/08/15 08:52:30;;;;;;;;;;;18.30;90.90;;;;;;5053499;28;20354;-61
2021/08/15 08:54:57;;;;;;;;;;;18.40;90.90;;;;;;5063112;28;19959;-61
2021/08/15 08:57:22;;;;;;;;;;;18.60;91.10;;;;;;5051526;28;19989;-61
2021/08/15 08:59:48;;;;;;;;;;;18.70;90.80;;;;;;5039161;28;20382;-61
2021/08/15 09:02:13;;;;;;;;;;;18.80;90.80;;;;;;5059345;28;19927;-61
2021/08/15 09:04:39;;;;;;;;;;;19.00;90.80;;;;;;5032909;28;19931;-61
2021/08/15 09:07:16;;;;;;;;;;;19.30;91.00;;;;;;5063719;28;19924;-61
2021/08/15 09:09:51;;;;;;;;;;;19.50;90.90;;;;;;5055526;28;19921;-61
2021/08/15 09:12:17;;;;;;;;;;;19.80;90.60;;;;;;5054052;28;19924;-61
2021/08/15 09:14:43;;;;;;;;;;;20.00;90.40;;;;;;5021676;28;19929;-61
2021/08/15 09:17:09;;;;;;;;;;;20.30;90.10;;;;;;5062529;28;19925;-61
2021/08/15 09:19:34;;;;;;;;;;;20.40;89.10;;;;;;5054303;28;20362;-61
2021/08/15 09:22:13;;;;;;;;;;;20.40;88.10;;;;;;5056418;28;20404;-61
2021/08/15 09:24:59;;;;;;;;;;;20.40;87.90;;;;;;5049089;28;20353;-61
2021/08/15 09:27:26;;;;;;;;;;;20.40;87.10;;;;;;5038229;28;20376;-61
2021/08/15 09:30:10;;;;;;;;;;;20.50;88.10;;;;;;5057903;28;20019;-61
2021/08/15 09:32:37;;;;;;;;;;;20.60;87.00;;;;;;5062475;28;19947;-60
2021/08/15 09:35:04;;;;;;;;;;;20.60;86.10;;;;;;5050484;28;19921;-61
2021/08/15 09:37:30;;;;;;;;;;;20.60;85.20;;;;;;5059990;28;19947;-61
2021/08/15 09:39:56;;;;;;;;;;;20.40;84.70;;;;;;5058119;28;19927;-61
2021/08/15 09:42:40;;;;;;;;;;;20.30;84.60;;;;;;5057363;28;19924;-60
2021/08/15 09:45:06;;;;;;;;;;;20.20;84.50;;;;;;5066759;28;19921;-61
2021/08/15 09:47:32;;;;;;;;;;;20.10;84.70;;;;;;5056193;28;19973;-60
2021/08/15 09:49:57;;;;;;;;;;;20.10;85.30;;;;;;5057703;28;19920;-61
2021/08/15 09:52:36;;;;;;;;;;;20.10;84.90;;;;;;5062568;28;20299;-61
2021/08/15 09:55:02;;;;;;;;;;;20.20;85.10;;;;;;5051873;28;19925;-60
2021/08/15 09:57:37;;;;;;;;;;;20.40;85.00;;;;;;5062227;28;19921;-61
2021/08/15 10:00:04;;;;;;;;;;;20.50;84.60;;;;;;5061539;28;20411;-63
2021/08/15 10:02:38;;;;;;;;;;;20.70;84.90;;;;;;5054447;28;20304;-61
2021/08/15 10:05:03;;;;;;;;;;;20.90;84.90;;;;;;5066414;28;19925;-62
2021/08/15 10:07:30;;;;;;;;;;;21.30;85.90;;;;;;5056158;28;19916;-62
2021/08/15 10:09:55;;;;;;;;;;;21.90;86.20;;;;;;5059878;28;19929;-63
2021/08/15 10:12:21;;;;;;;;;;;22.30;84.80;;;;;;5065526;28;20322;-62
2021/08/15 10:14:47;;;;;;;;;;;22.40;82.60;;;;;;5053055;28;19928;-64
2021/08/15 10:17:14;;;;;;;;;;;22.10;80.70;;;;;;5065845;28;20144;-65
2021/08/15 10:19:54;;;;;;;;;;;21.70;79.90;;;;;;5057862;28;20344;-62
2021/08/15 10:22:34;;;;;;;;;;;21.40;79.80;;;;;;5038046;28;19920;-61
2021/08/15 10:25:03;;;;;;;;;;;20.90;79.70;;;;;;5065835;28;19956;-61
2021/08/15 10:27:38;;;;;;;;;;;20.60;80.20;;;;;;5056124;28;19924;-62
2021/08/15 10:30:24;;;;;;;;;;;20.40;80.50;;;;;;5058502;28;19920;-61
2021/08/15 10:32:56;;;;;;;;;;;20.20;80.80;;;;;;5019681;28;20028;-61
2021/08/15 10:35:23;;;;;;;;;;;20.10;81.20;;;;;;5063963;28;20584;-63
2021/08/15 10:37:52;;;;;;;;;;;19.90;81.60;;;;;;5057962;28;19946;-61
2021/08/15 10:40:36;;;;;;;;;;;19.80;82.00;;;;;;5056369;28;19970;-60
2021/08/15 10:43:02;;;;;;;;;;;19.80;82.40;;;;;;5065636;28;19956;-61
2021/08/15 10:45:27;;;;;;;;;;;19.70;82.80;;;;;;5055602;28;19994;-61
2021/08/15 10:48:05;;;;;;;;;;;19.70;83.20;;;;;;5054778;28;20345;-61
2021/08/15 10:50:39;;;;;;;;;;;19.70;83.60;;;;;;5044312;28;20479;-62
2021/08/15 10:53:24;;;;;;;;;;;19.80;84.20;;;;;;5031083;28;19990;-61
2021/08/15 10:55:50;;;;;;;;;;;20.00;84.40;;;;;;5052341;28;19928;-61
2021/08/15 10:58:37;;;;;;;;;;;20.10;84.20;;;;;;5048001;28;19936;-61
2021/08/15 11:01:04;;;;;;;;;;;20.10;83.50;;;;;;5048719;28;19956;-60
2021/08/15 11:03:31;;;;;;;;;;;20.10;83.40;;;;;;5049041;28;19925;-61
2021/08/15 11:05:58;;;;;;;;;;;20.10;83.40;;;;;;5048609;28;19927;-61
2021/08/15 11:08:32;;;;;;;;;;;20.20;83.90;;;;;;5048366;28;19970;-60
2021/08/15 11:11:10;;;;;;;;;;;20.30;84.50;;;;;;5048298;28;19927;-61
2021/08/15 11:13:37;;;;;;;;;;;20.70;85.10;;;;;;5048732;28;19928;-60
2021/08/15 11:16:20;;;;;;;;;;;21.10;85.50;;;;;;5048406;28;19921;-61
2021/08/15 11:19:05;;;;;;;;;;;21.70;86.20;;;;;;5047915;28;19929;-61
2021/08/15 11:21:49;;;;;;;;;;;22.20;84.70;;;;;;5048212;28;20297;-61
2021/08/15 11:24:22;;;;;;;;;;;22.90;85.00;;;;;;5048357;28;19921;-61
2021/08/15 11:26:48;;;;;;;;;;;24.70;86.10;;;;;;5030662;28;19932;-62
2021/08/15 11:29:18;;;;;;;;;;;26.90;84.90;;;;;;5028497;28;19928;-62
2021/08/15 11:31:45;;;;;;;;;;;28.10;80.20;;;;;;5045665;28;20405;-61
2021/08/15 11:34:10;;;;;;;;;;;28.90;77.70;;;;;;5046960;28;20008;-62
2021/08/15 11:36:36;;;;;;;;;;;29.90;75.10;;;;;;5047253;28;20071;-62
2021/08/15 11:39:04;;;;;;;;;;;30.40;71.70;;;;;;5047373;28;20385;-62
2021/08/15 11:41:29;;;;;;;;;;;31.70;70.70;;;;;;5047582;28;19921;-62
2021/08/15 11:43:55;;;;;;;;;;;33.60;68.90;;;;;;5047247;28;20288;-62
2021/08/15 11:46:21;;;;;;;;;;;35.60;64.90;;;;;;5048479;28;19995;-62
2021/08/15 11:48:47;;;;;;;;;;;37.20;60.50;;;;;;5047814;28;19929;-62
2021/08/15 11:51:13;;;;;;;;;;;38.40;55.90;;;;;;5047834;28;20384;-62
2021/08/15 11:53:39;;;;;;;;;;;39.30;52.20;;;;;;5047601;28;19967;-62
2021/08/15 11:56:08;;;;;;;;;;;39.80;48.80;;;;;;5047195;28;19931;-62
2021/08/15 11:58:34;;;;;;;;;;;39.80;46.60;;;;;;5046758;28;19976;-63
2021/08/15 12:01:06;;;;;;;;;;;39.30;44.30;;;;;;5030463;28;20459;-62
2021/08/15 12:03:32;;;;;;;;;;;38.60;43.10;;;;;;5049025;28;19924;-61
2021/08/15 12:06:02;;;;;;;;;;;37.80;42.30;;;;;;5057909;28;19971;-61
2021/08/15 12:08:33;;;;;;;;;;;36.60;41.10;;;;;;5025735;28;19940;-61
2021/08/15 12:10:59;;;;;;;;;;;34.90;41.50;;;;;;5050159;28;19955;-61
2021/08/15 12:13:34;;;;;;;;;;;33.10;42.30;;;;;;5061259;28;20369;-65
2021/08/15 12:16:00;;;;;;;;;;;31.60;43.90;;;;;;5057308;28;19920;-65
2021/08/15 12:18:30;;;;;;;;;;;30.50;45.00;;;;;;5052531;28;19928;-64
2021/08/15 12:20:56;;;;;;;;;;;29.60;46.00;;;;;;5045002;28;19927;-63
2021/08/15 12:23:22;;;;;;;;;;;28.90;47.20;;;;;;5052799;28;19939;-65
2021/08/15 12:26:04;;;;;;;;;;;28.40;48.40;;;;;;5060813;28;20535;-65
2021/08/15 12:28:34;;;;;;;;;;;28.10;49.30;;;;;;5051506;28;19928;-65
2021/08/15 12:31:16;;;;;;;;;;;28.10;50.40;;;;;;5056417;28;20070;-64
2021/08/15 12:33:42;;;;;;;;;;;28.20;50.80;;;;;;5046144;28;19925;-63
2021/08/15 12:36:23;;;;;;;;;;;28.10;51.00;;;;;;5048058;28;20300;-65
2021/08/15 12:38:50;;;;;;;;;;;28.00;51.20;;;;;;5046923;28;19921;-63
2021/08/15 12:41:34;;;;;;;;;;;27.80;51.70;;;;;;5048786;28;19971;-64
2021/08/15 12:44:07;;;;;;;;;;;27.60;52.00;;;;;;5044655;28;19921;-64
2021/08/15 12:46:32;;;;;;;;;;;27.30;52.60;;;;;;5046983;28;19964;-64
2021/08/15 12:48:58;;;;;;;;;;;27.20;53.50;;;;;;5050189;28;19963;-62
2021/08/15 12:51:23;;;;;;;;;;;27.10;54.30;;;;;;5049501;28;19921;-65
2021/08/15 12:53:49;;;;;;;;;;;27.20;55.30;;;;;;5049068;28;19946;-64
2021/08/15 12:56:20;;;;;;;;;;;27.60;56.20;;;;;;5048478;28;20361;-65
2021/08/15 12:58:46;;;;;;;;;;;28.20;55.60;;;;;;5046052;28;19921;-64
2021/08/15 13:01:11;;;;;;;;;;;28.60;54.80;;;;;;5048879;28;20325;-63
2021/08/15 13:03:37;;;;;;;;;;;28.70;53.80;;;;;;5047812;28;19925;-64
2021/08/15 13:06:06;;;;;;;;;;;29.00;55.00;;;;;;5048274;28;19920;-64
2021/08/15 13:08:31;;;;;;;;;;;29.20;54.30;;;;;;5045730;28;19921;-64
2021/08/15 13:10:57;;;;;;;;;;;29.50;54.10;;;;;;5031931;28;19921;-64
2021/08/15 13:13:22;;;;;;;;;;;29.20;53.40;;;;;;5047938;28;19916;-65
2021/08/15 13:15:48;;;;;;;;;;;28.70;53.20;;;;;;5029982;28;19921;-64
2021/08/15 13:18:15;;;;;;;;;;;28.10;53.20;;;;;;5016799;28;19939;-64
2021/08/15 13:20:40;;;;;;;;;;;27.50;53.90;;;;;;5051251;28;20300;-63
2021/08/15 13:23:06;;;;;;;;;;;26.90;54.60;;;;;;5035605;28;19921;-64
2021/08/15 13:25:32;;;;;;;;;;;26.50;55.30;;;;;;5034025;28;20109;-64
2021/08/15 13:27:58;;;;;;;;;;;26.20;56.20;;;;;;5072804;22;20517;-64
2021/08/15 13:30:24;;;;;;;;;;;25.90;56.90;;;;;;5064066;28;19927;-64
2021/08/15 13:32:49;;;;;;;;;;;25.70;57.70;;;;;;5050087;28;20395;-64
2021/08/15 13:35:15;;;;;;;;;;;25.80;58.60;;;;;;5049989;28;19917;-64
2021/08/15 13:37:41;;;;;;;;;;;25.70;58.90;;;;;;5039137;28;19932;-64
2021/08/15 13:40:08;;;;;;;;;;;25.60;59.00;;;;;;5016722;28;19928;-65
2021/08/15 13:42:35;;;;;;;;;;;25.40;59.00;;;;;;5024681;28;19921;-64
2021/08/15 13:45:00;;;;;;;;;;;25.30;60.00;;;;;;5026967;28;19964;-64
2021/08/15 13:47:26;;;;;;;;;;;25.30;60.40;;;;;;5015286;28;19971;-64
2021/08/15 13:49:52;;;;;;;;;;;25.30;60.60;;;;;;5019317;28;19928;-64
2021/08/15 13:52:18;;;;;;;;;;;25.20;60.50;;;;;;5023030;28;20336;-64
2021/08/15 13:54:44;;;;;;;;;;;25.20;61.10;;;;;;5011634;28;19971;-69
2021/08/15 13:57:10;;;;;;;;;;;25.10;61.40;;;;;;5030066;28;19925;-69
2021/08/15 13:59:36;;;;;;;;;;;25.10;61.90;;;;;;5030416;28;19921;-70
2021/08/15 14:02:02;;;;;;;;;;;25.10;62.00;;;;;;5030348;28;19928;-70
2021/08/15 14:04:27;;;;;;;;;;;25.10;62.50;;;;;;5028137;28;19932;-69
2021/08/15 14:06:53;;;;;;;;;;;25.30;62.70;;;;;;5013741;28;20297;-69
2021/08/15 14:09:18;;;;;;;;;;;25.30;62.60;;;;;;5024802;28;19921;-70
2021/08/15 14:11:44;;;;;;;;;;;25.30;62.50;;;;;;5029721;28;19921;-69
2021/08/15 14:14:10;;;;;;;;;;;25.20;62.70;;;;;;5023671;28;19928;-70
2021/08/15 14:16:35;;;;;;;;;;;25.20;63.00;;;;;;5020530;28;19925;-70
2021/08/15 14:19:01;;;;;;;;;;;25.20;62.90;;;;;;5021429;28;19921;-70
2021/08/15 14:21:27;;;;;;;;;;;25.10;63.00;;;;;;5024790;28;19943;-70